• Join FlightAware (Why Join?)
  • Login
  • US Flag 
04:21PM EDT


 

Airport Tracker/Info


-or-


 

Live Flight TrackerFlight Track Log ✈ TAM3211 ✈ 22-Aug-2013 ✈ SBCF / CNF - SBSP / CGH

Flight Track Log - Related Links

Times and Time Zones

All times are in EDT time to prevent confusion due to time zone crossing. See the TAM3211 flight status page for this flight to view local times or setup timezone preferences in your user account.

Time Position Orientation Groundspeed Altitude Reporting Facility
EDT Latitude Longitude Course Direction KTS MPH feet Rate Location/Type
05:03AM -19.6330 -43.9700 148° Southeast 135 155  Level FlightAware
05:03AM -19.6430 -43.9610 140° Southeast 152 175 3,000 6,000 Climbing FlightAware
05:04AM -19.6530 -43.9540 147° Southeast 164 189 3,500 1,920 Climbing FlightAware
05:04AM -19.6600 -43.9510 158° South 167 192 3,800 2,160 Climbing FlightAware
05:04AM -19.6710 -43.9480 166° South 168 193 4,400 2,160 Climbing FlightAware
05:04AM -19.6780 -43.9460 165° South 172 198 4,700 1,500 Climbing FlightAware
05:04AM -19.6850 -43.9400 141° Southeast 180 207 4,900 1,200 Climbing FlightAware
05:04AM -19.6870 -43.9360 118° Southeast 185 213 5,000 1,200 Climbing FlightAware
05:04AM -19.6870 -43.9310 90° East 188 216 5,100 1,380 Climbing FlightAware
05:05AM -19.6740 -43.9130 53° Northeast 218 251 5,700 1,380 Climbing FlightAware
05:05AM -19.6690 -43.9120 11° North 222 255 5,800 2,100 Climbing FlightAware
05:05AM -19.6520 -43.9110 North 244 281 6,400 2,400 Climbing FlightAware
05:06AM -19.6240 -43.9120 358° North 275 316 7,400 2,700 Climbing FlightAware
05:06AM -19.6110 -43.9180 337° Northwest 280 322 8,000 3,600 Climbing FlightAware
05:06AM -19.6050 -43.9220 328° Northwest 280 322 8,300 4,260 Climbing FlightAware
05:06AM -19.5960 -43.9320 314° West 283 326 9,000 3,960 Climbing FlightAware
05:06AM -19.5940 -43.9370 293° West 284 327 9,300 3,240 Climbing FlightAware
05:06AM -19.5900 -43.9450 298° West 286 329 9,600 2,820 Climbing FlightAware
05:07AM -19.5730 -44.0000 288° West 316 364 11,400 2,400 Climbing FlightAware
05:07AM -19.5680 -44.0300 280° West 346 398 12,000 2,100 Climbing FlightAware
05:08AM -19.5760 -44.0660 257° West 359 413 12,800 2,280 Climbing FlightAware
05:08AM -19.5910 -44.0860 231° Southwest 361 415 13,400 2,340 Climbing FlightAware
05:08AM -19.6280 -44.1240 224° Southwest 374 430 14,600 2,400 Climbing FlightAware
05:09AM -19.6750 -44.1750 226° Southwest 381 438 16,200 2,880 Climbing FlightAware
05:10AM -19.7200 -44.2240 226° Southwest 373 429 18,200 2,640 Climbing FlightAware
05:10AM -19.7570 -44.2640 225° Southwest 386 444 19,100 1,980 Climbing FlightAware
05:11AM -19.8010 -44.3110 225° Southwest 394 453 20,400 2,460 Climbing FlightAware
05:11AM -19.8510 -44.3660 226° Southwest 392 451 22,200 2,460 Climbing FlightAware
05:12AM -19.8900 -44.4070 225° Southwest 392 451 23,300 1,920 Climbing FlightAware
05:12AM -19.9420 -44.4650 226° Southwest 403 464 24,500 1,860 Climbing FlightAware
05:13AM -19.9950 -44.5220 225° Southwest 406 467 25,800 1,620 Climbing FlightAware
05:14AM -20.0320 -44.5660 228° Southwest 417 480 26,400 1,380 Climbing FlightAware
05:14AM -20.0530 -44.6120 244° Southwest 422 486 27,100 1,800 Climbing FlightAware
05:15AM -20.0800 -44.6780 246° West 421 484 28,200 2,040 Climbing FlightAware
05:15AM -20.1130 -44.7540 245° Southwest 416 479 29,700 2,400 Climbing FlightAware
05:16AM -20.1360 -44.8100 246° West 408 470 31,000 1,920 Climbing FlightAware
05:16AM -20.1630 -44.8740 246° West 412 474 31,800 840 Climbing FlightAware
05:17AM -20.1910 -44.9390 245° Southwest 405 466 32,000 120 Climbing FlightAware
05:18AM -20.2170 -45.0010 246° West 408 470 32,000  Level FlightAware
05:18AM -20.2440 -45.0660 246° West 410 472 32,000  Level FlightAware
05:19AM -20.2710 -45.1310 246° West 410 472 32,000  Level FlightAware
05:19AM -20.2990 -45.1970 246° West 410 472 32,000  Level FlightAware
05:20AM -20.3320 -45.2580 240° Southwest 410 472 32,000  Level FlightAware
05:21AM -20.3780 -45.3200 232° Southwest 411 473 32,000  Level FlightAware
05:21AM -20.4150 -45.3660 229° Southwest 412 474 32,000  Level FlightAware
05:22AM -20.4590 -45.4210 230° Southwest 413 475 32,000  Level FlightAware
05:22AM -20.5030 -45.4750 229° Southwest 414 476 32,000  Level FlightAware
05:23AM -20.5530 -45.5370 229° Southwest 415 478 32,000  Level FlightAware
05:23AM -20.5900 -45.5830 229° Southwest 415 478 32,000  Level FlightAware
05:24AM -20.6340 -45.6380 229° Southwest 414 476 32,000  Level FlightAware
05:25AM -20.6770 -45.6920 230° Southwest 413 475 32,000  Level FlightAware
05:25AM -20.7190 -45.7430 229° Southwest 412 474 32,000  Level FlightAware
05:26AM -20.7700 -45.8080 230° Southwest 411 473 32,000  Level FlightAware
05:26AM -20.8140 -45.8620 229° Southwest 411 473 32,000  Level FlightAware
05:27AM -20.8490 -45.9060 230° Southwest 412 474 32,000  Level FlightAware
05:27AM -20.8950 -45.9640 230° Southwest 412 474 32,000  Level FlightAware
05:28AM -20.9430 -46.0240 229° Southwest 412 474 32,000  Level FlightAware
05:29AM -20.9810 -46.0710 229° Southwest 412 474 32,000  Level FlightAware
05:29AM -21.0230 -46.1230 229° Southwest 412 474 32,000  Level FlightAware
05:30AM -21.0680 -46.1800 230° Southwest 412 474 32,000  Level FlightAware
05:30AM -21.1170 -46.2430 230° Southwest 413 475 32,000  Level FlightAware
05:31AM -21.1550 -46.2900 229° Southwest 413 475 32,000  Level FlightAware
05:32AM -21.1980 -46.3440 229° Southwest 412 474 32,000  Level FlightAware
05:32AM -21.2480 -46.4070 230° Southwest 411 473 32,000  Level FlightAware
05:33AM -21.2800 -46.4470 229° Southwest 410 472 32,000  Level FlightAware
05:33AM -21.3280 -46.5080 230° Southwest 410 472 32,000  Level FlightAware
05:34AM -21.3710 -46.5620 229° Southwest 408 470 32,000  Level FlightAware
05:35AM -21.4190 -46.6230 230° Southwest 408 470 32,000  Level FlightAware
05:35AM -21.4540 -46.6670 229° Southwest 406 467 32,000  Level FlightAware
05:36AM -21.4980 -46.7240 230° Southwest 406 467 32,000  Level FlightAware
05:36AM -21.5400 -46.7770 230° Southwest 405 466 32,000  Level FlightAware
05:37AM -21.5830 -46.8310 229° Southwest 406 467 32,000  Level FlightAware
05:37AM -21.6230 -46.8740 225° Southwest 408 470 32,000  Level FlightAware
05:38AM -21.6880 -46.9110 208° Southwest 411 473 32,000  Level FlightAware
05:38AM -21.7410 -46.9420 209° Southwest 410 472 32,000  Level FlightAware
05:39AM -21.8020 -46.9770 208° Southwest 409 471 32,000  Level FlightAware
05:40AM -21.8610 -47.0120 209° Southwest 409 471 32,000  Level FlightAware
05:40AM -21.9130 -47.0420 208° Southwest 409 471 32,000  Level FlightAware
05:41AM -21.9780 -47.0800 208° Southwest 409 471 32,000  Level FlightAware
05:41AM -22.0380 -47.1150 208° Southwest 409 471 32,000 -180 Level FlightAware
05:42AM -22.0990 -47.1500 208° Southwest 409 471 31,800 -540 Descending FlightAware
05:43AM -22.1520 -47.1810 208° Southwest 411 473 31,400 -840 Descending FlightAware
05:43AM -22.2120 -47.2160 208° Southwest 418 481 30,900 -960 Descending FlightAware
05:44AM -22.2710 -47.2510 209° Southwest 422 486 30,300 -960 Descending FlightAware
05:44AM -22.3320 -47.2860 208° Southwest 424 488 29,800 -1,020 Descending FlightAware
05:45AM -22.3900 -47.3210 209° Southwest 422 486 29,200 -1,080 Descending FlightAware
05:45AM -22.4490 -47.3550 208° Southwest 411 473 28,600 -1,260 Descending FlightAware
05:46AM -22.5120 -47.3920 208° Southwest 406 467 27,700 -2,280 Descending FlightAware
05:47AM -22.5640 -47.4230 209° Southwest 411 473 26,000 -3,120 Descending FlightAware
05:47AM -22.6200 -47.4520 206° Southwest 417 480 24,400 -2,460 Descending FlightAware
05:48AM -22.6940 -47.4520 180° South 411 473 23,100 -2,160 Descending FlightAware
05:48AM -22.7460 -47.4290 158° South 409 471 21,900 -2,760 Descending FlightAware
05:49AM -22.8160 -47.3970 157° South 405 466 19,900 -3,000 Descending FlightAware
05:50AM -22.8750 -47.3700 157° South 405 466 18,200 -3,000 Descending FlightAware
05:50AM -22.9380 -47.3400 156° South 406 467 16,400 -3,000 Descending FlightAware
05:51AM -23.0010 -47.3110 157° South 404 465 14,700 -2,760 Descending FlightAware
05:51AM -23.0610 -47.2830 157° South 405 466 13,200 -2,160 Descending FlightAware
05:52AM -23.1210 -47.2550 157° South 386 444 12,200 -1,320 Descending FlightAware
05:52AM -23.1520 -47.2370 152° Southeast 389 448 12,000 -720 Descending FlightAware
05:53AM -23.1990 -47.1930 139° Southeast 361 415 11,600 -720 Descending FlightAware
05:53AM -23.2400 -47.1550 140° Southeast 328 377 11,200 -780 Descending FlightAware
05:54AM -23.2770 -47.1200 139° Southeast 316 364 10,700 -960 Descending FlightAware
05:55AM -23.3180 -47.0810 139° Southeast 305 351 10,100 -1,020 Descending FlightAware
05:55AM -23.3410 -47.0600 140° Southeast 304 350 9,800 -720 Descending FlightAware
05:55AM -23.3680 -47.0350 140° Southeast 304 350 9,600 -420 Descending FlightAware
05:56AM -23.3890 -47.0150 139° Southeast 300 345 9,500 -480 Descending FlightAware
05:56AM -23.4110 -46.9940 139° Southeast 303 349 9,300 -600 Descending FlightAware
05:56AM -23.4330 -46.9740 140° Southeast 305 351 9,100 -600 Descending FlightAware
05:57AM -23.4500 -46.9580 139° Southeast 306 352 9,000 -180 Descending FlightAware
05:57AM -23.4710 -46.9380 139° Southeast 305 351 9,000 -360 Level FlightAware
05:57AM -23.4880 -46.9230 141° Southeast 306 352 8,800 -600 Descending FlightAware
05:58AM -23.5150 -46.8970 139° Southeast 309 356 8,600 -600 Descending FlightAware
05:58AM -23.5310 -46.8810 137° Southeast 306 352 8,400 -540 Descending FlightAware
05:58AM -23.5520 -46.8620 140° Southeast 286 329 8,300 -540 Descending FlightAware
05:59AM -23.5760 -46.8380 137° Southeast 269 310 8,000 -540 Descending FlightAware
05:59AM -23.5860 -46.8290 140° Southeast 263 303 8,000 -540 Level FlightAware
05:59AM -23.6090 -46.8060 138° Southeast 261 300 7,700 -540 Descending FlightAware
05:59AM -23.6270 -46.7890 139° Southeast 261 300 7,600 -480 Descending FlightAware
06:00AM -23.6450 -46.7710 138° Southeast 262 302 7,400 -480 Descending FlightAware
06:00AM -23.6630 -46.7520 136° Southeast 248 285 7,300 -180 Descending FlightAware
06:01AM -23.6830 -46.7320 138° Southeast 244 281 7,300  Level FlightAware
06:01AM -23.7000 -46.7150 138° Southeast 247 284 7,300 -480 Level FlightAware
06:01AM -23.7180 -46.6980 139° Southeast 241 277 7,000 -900 Descending FlightAware
06:02AM -23.7350 -46.6810 138° Southeast 237 273 6,700 -840 Descending FlightAware
06:02AM -23.7550 -46.6620 139° Southeast 241 277 6,400 -720 Descending FlightAware
06:02AM -23.7720 -46.6460 139° Southeast 235 270 6,200 -600 Descending FlightAware
06:03AM -23.7880 -46.6290 136° Southeast 227 261 6,000 -720 Descending FlightAware
06:03AM -23.7910 -46.6240 123° Southeast 226 260 5,900 -420 Descending FlightAware
06:03AM -23.7930 -46.6150 104° East 219 252 5,900 -660 Level FlightAware
06:03AM -23.7870 -46.5940 73° East 198 228 5,600 -720 Descending FlightAware
06:03AM -23.7800 -46.5820 57° Northeast 192 221 5,500 -720 Descending FlightAware
06:04AM -23.7690 -46.5690 47° Northeast 163 188 5,200 -720 Descending FlightAware
06:04AM -23.7640 -46.5690 360° North 161 185 5,200  Level FlightAware
06:04AM -23.7610 -46.5690 360° North 148 170 5,200 -420 Level FlightAware
06:04AM -23.7550 -46.5700 351° North 140 161 5,100 -660 Descending FlightAware
06:04AM -23.7490 -46.5730 335° Northwest 134 154 5,000 -420 Descending FlightAware
06:05AM -23.7380 -46.5800 330° Northwest 129 148 4,900 -480 Descending FlightAware
06:05AM -23.7280 -46.5870 327° Northwest 119 137 4,700 -780 Descending FlightAware
06:05AM -23.7180 -46.5930 331° Northwest 118 136 4,400 -780 Descending FlightAware
06:06AM -23.7090 -46.5990 329° Northwest 105 121 4,200 -600 Descending FlightAware
06:06AM -23.7000 -46.6060 325° Northwest 105 121 4,000 -600 Descending FlightAware
06:06AM -23.6910 -46.6120 329° Northwest 120 138 3,800 -720 Descending FlightAware
06:07AM -23.6750 -46.6230 328° Northwest 124 143 3,400 -660 Descending FlightAware
06:07AM -23.6680 -46.6280 327° Northwest 124 143 3,300 -720 Descending FlightAware
06:07AM -23.6580 -46.6350 327° Northwest 128 147 3,000 -780 Descending FlightAware
06:08AM -23.6440 -46.6440 330° Northwest 122 140 2,700 -540 Descending FlightAware
06:08AM -23.6360 -46.6500 326° Northwest 129 148 2,500 -420 Descending FlightAware
06:09AM -23.6260 -46.6570 327° Northwest 129 148 -9,420 Descending FlightAware
06:10AM -23.6230 -46.6600 180° South 129 148  Level FlightAware
06:10AM -23.6140 -46.6480 51° Northeast 129 148  Level FlightAware
06:11AM -23.6240 -46.6600 180° South 129 148  Level FlightAware
06:12AM -23.6240 -46.6590 90° East 129 148  Level FlightAware
06:12AM -23.6250 -46.6600 222° Southwest 129 148  Level FlightAware
06:13AM -23.6240 -46.6460 86° East 129 148  Level FlightAware
06:13AM -23.6250 -46.6600 266° West 129 148  Level FlightAware
06:14AM -23.6240 -46.6460 86° East 129 148  Level FlightAware
06:15AM -23.6250 -46.6600 266° West 129 148  Level FlightAware
06:16AM -23.6230 -46.6440 82° East 129 148  Level FlightAware